Terminal Aerodrome Forecast
Issued by NWS Charleston, WV

Current Version | Previous Version | Graphics & Text | Print | Product List | Glossary On
Versions: 1 2 3 4 5 6 7 8 9 10 11 12 13 14 15 16 17 18 19 20 21 22 23 24 25 26 27 28 29 30 31
000
FTUS41 KRLX 051300 AAA
TAFCRW
TAF AMD
KCRW 051300Z 0513/0612 00000KT 2SM BR BKN001 BKN070
      TEMPO 0513/0514 3SM SCT001
     FM051400 17004KT 6SM HZ BKN070
     FM051800 09004KT 3SM SHRA VCTS OVC050CB
     FM060000 00000KT 6SM SHRA BR OVC040
     FM060500 00000KT 5SM BR BKN050
     FM061000 00000KT 2SM SHRA BR OVC030=

USA.gov is the U.S. government's official web portal to all federal, state and local government web resources and services.